Terminal Aerodrome Forecast
Issued by NWS

Home | Current Version | Previous Version | Text Only | Print | Product List | Glossary On
Versions: 1 2 3 4 5 6 7 8 9 10 11 12 13 14 15 16 17 18 19
000
FTUS44 KBMX 221720
TAFMGM
TAF
KMGM 221720Z 2218/2318 15006KT 4SM SHRA VCTS BKN035CB BKN150
     FM230400 16003KT P6SM VCSH BKN025 BKN250
     FM230900 16003KT 4SM BR BKN005
     FM231400 28004KT P6SM VCSH BKN025=

USA.gov is the U.S. government's official web portal to all federal, state and local government web resources and services.